createdAt,value
2017-09-24T00:00:40.471Z,0
2017-09-24T00:01:35.432Z,0
2017-09-24T00:02:35.452Z,0
2017-09-24T00:03:29.493Z,0
2017-09-24T00:04:29.500Z,0
2017-09-24T00:05:24.583Z,0
2017-09-24T00:06:19.589Z,0
2017-09-24T00:07:19.588Z,0
2017-09-24T00:08:14.661Z,0
2017-09-24T00:09:10.211Z,0
2017-09-24T00:10:10.693Z,0
2017-09-24T00:11:10.829Z,0
2017-09-24T00:12:10.788Z,0
2017-09-24T00:13:05.788Z,0
2017-09-24T00:14:00.251Z,0
2017-09-24T00:15:00.856Z,0
2017-09-24T00:16:00.896Z,0
2017-09-24T00:17:00.893Z,0
2017-09-24T00:17:56.016Z,0
2017-09-24T00:18:50.332Z,0
2017-09-24T00:19:50.043Z,0
2017-09-24T00:20:45.067Z,0
2017-09-24T00:21:40.065Z,0
2017-09-24T00:22:46.087Z,0
2017-09-24T00:23:40.496Z,0
2017-09-24T00:24:41.201Z,0
2017-09-24T00:25:41.189Z,0
2017-09-24T00:26:41.626Z,0
2017-09-24T00:27:36.273Z,0
2017-09-24T00:28:30.504Z,0
2017-09-24T00:29:30.278Z,0
2017-09-24T00:30:25.385Z,0
2017-09-24T00:31:25.388Z,0
2017-09-24T00:32:19.464Z,0
2017-09-24T00:33:19.441Z,0
2017-09-24T00:34:19.486Z,0
2017-09-24T00:35:20.575Z,0
2017-09-24T00:36:20.566Z,0
2017-09-24T00:37:20.573Z,0
2017-09-24T00:38:20.590Z,0
2017-09-24T00:39:26.664Z,0
2017-09-24T00:40:21.673Z,0
2017-09-24T00:41:21.685Z,0
2017-09-24T00:42:15.944Z,0
2017-09-24T00:43:15.765Z,0
2017-09-24T00:44:10.781Z,0
2017-09-24T00:45:05.806Z,0
2017-09-24T00:46:05.869Z,0
2017-09-24T00:47:00.898Z,0
2017-09-24T00:47:55.915Z,0
2017-09-24T00:48:55.970Z,0
2017-09-24T00:49:50.978Z,0
2017-09-24T00:50:46.043Z,0
2017-09-24T00:51:52.188Z,0
2017-09-24T00:52:52.074Z,0
2017-09-24T00:53:52.277Z,0
2017-09-24T00:54:46.136Z,0
2017-09-24T00:55:46.168Z,0
2017-09-24T00:56:46.180Z,0
2017-09-24T00:57:41.214Z,0
2017-09-24T00:58:35.258Z,0
2017-09-24T00:59:35.319Z,0
2017-09-24T01:00:30.295Z,0
2017-09-24T01:01:25.360Z,0
2017-09-24T01:02:26.380Z,0
2017-09-24T01:03:27.404Z,0
2017-09-24T01:04:27.897Z,0
2017-09-24T01:05:28.446Z,0
2017-09-24T01:06:29.479Z,0
2017-09-24T01:07:23.540Z,0
2017-09-24T01:08:24.577Z,0
2017-09-24T01:09:24.651Z,0
2017-09-24T01:10:19.594Z,0
2017-09-24T01:11:19.662Z,0
2017-09-24T01:12:13.699Z,0
2017-09-24T01:13:13.696Z,0
2017-09-24T01:14:08.809Z,0
2017-09-24T01:15:03.790Z,0
2017-09-24T01:16:03.788Z,0
2017-09-24T01:16:58.892Z,0
2017-09-24T01:17:53.888Z,0
2017-09-24T01:18:54.402Z,0
2017-09-24T01:19:48.965Z,0
2017-09-24T01:20:43.984Z,0
2017-09-24T01:21:44.992Z,0
2017-09-24T01:22:45.018Z,0
2017-09-24T01:23:45.610Z,0
2017-09-24T01:24:40.091Z,0
2017-09-24T01:25:34.109Z,0
2017-09-24T01:26:34.198Z,0
2017-09-24T01:27:29.193Z,0
2017-09-24T01:28:29.270Z,0
2017-09-24T01:29:29.271Z,0
2017-09-24T01:30:29.281Z,0
2017-09-24T01:31:23.304Z,0
2017-09-24T01:32:24.377Z,0
2017-09-24T01:33:25.391Z,0
2017-09-24T01:34:20.403Z,0
2017-09-24T01:35:14.475Z,0
2017-09-24T01:36:14.482Z,0
2017-09-24T01:37:09.545Z,0
2017-09-24T01:38:09.580Z,0
2017-09-24T01:39:04.041Z,0
2017-09-24T01:40:03.608Z,0
2017-09-24T01:40:58.643Z,0
2017-09-24T01:41:53.659Z,0
2017-09-24T01:42:53.672Z,0
2017-09-24T01:43:49.098Z,0
2017-09-24T01:44:43.772Z,0
2017-09-24T01:45:43.785Z,0
2017-09-24T01:46:38.849Z,0
2017-09-24T01:47:38.853Z,0
2017-09-24T01:48:39.262Z,0
2017-09-24T01:49:38.908Z,0
2017-09-24T01:50:33.010Z,0
2017-09-24T01:51:34.042Z,0
2017-09-24T01:52:34.002Z,0
2017-09-24T01:53:29.367Z,0
2017-09-24T01:54:29.573Z,0
2017-09-24T01:55:23.356Z,0
2017-09-24T01:56:24.430Z,0
2017-09-24T01:57:24.177Z,0
2017-09-24T01:58:19.443Z,0
2017-09-24T01:59:19.272Z,0
2017-09-24T02:00:13.295Z,0
2017-09-24T02:01:14.386Z,0
2017-09-24T02:02:15.376Z,0
2017-09-24T02:03:10.380Z,0
2017-09-24T02:04:10.375Z,0
2017-09-24T02:05:10.445Z,0
2017-09-24T02:06:04.468Z,0
2017-09-24T02:07:04.485Z,0
2017-09-24T02:08:04.493Z,0
2017-09-24T02:09:05.091Z,0
2017-09-24T02:10:04.605Z,0
2017-09-24T02:11:04.617Z,0
2017-09-24T02:12:05.691Z,0
2017-09-24T02:13:07.212Z,0
2017-09-24T02:14:06.922Z,0
2017-09-24T02:15:06.753Z,0
2017-09-24T02:16:00.786Z,0
2017-09-24T02:17:00.787Z,0
2017-09-24T02:17:55.896Z,0
2017-09-24T02:18:55.891Z,0
2017-09-24T02:19:56.185Z,0
2017-09-24T02:20:55.931Z,0
2017-09-24T02:21:50.003Z,0
2017-09-24T02:22:51.010Z,0
2017-09-24T02:23:51.404Z,0
2017-09-24T02:24:46.074Z,0
2017-09-24T02:25:46.092Z,0
2017-09-24T02:26:40.101Z,0
2017-09-24T02:27:41.155Z,0
2017-09-24T02:28:41.192Z,0
2017-09-24T02:29:36.205Z,0
2017-09-24T02:30:36.258Z,0
2017-09-24T02:31:36.276Z,0
2017-09-24T02:32:36.289Z,0
2017-09-24T02:33:30.611Z,0
2017-09-24T02:34:30.395Z,0
2017-09-24T02:35:25.470Z,0
2017-09-24T02:36:31.525Z,0
2017-09-24T02:37:26.482Z,0
2017-09-24T02:38:20.837Z,0
2017-09-24T02:39:20.516Z,0
2017-09-24T02:40:21.000Z,0
2017-09-24T02:41:15.603Z,0
2017-09-24T02:42:09.602Z,0
2017-09-24T02:43:09.668Z,0
2017-09-24T02:44:05.243Z,0
2017-09-24T02:44:59.692Z,0
2017-09-24T02:46:00.749Z,0
2017-09-24T02:47:00.772Z,0
2017-09-24T02:48:01.095Z,0
2017-09-24T02:48:56.178Z,0
2017-09-24T02:49:49.948Z,0
2017-09-24T02:50:49.877Z,0
2017-09-24T02:51:44.949Z,0
2017-09-24T02:52:50.980Z,0
2017-09-24T02:53:46.503Z,0
2017-09-24T02:54:40.039Z,0
2017-09-24T02:55:40.068Z,0
2017-09-24T02:56:40.090Z,0
2017-09-24T02:57:35.086Z,0
2017-09-24T02:58:29.438Z,0
2017-09-24T02:59:29.718Z,0
2017-09-24T03:00:24.193Z,0
2017-09-24T03:01:19.260Z,0
2017-09-24T03:02:25.289Z,0
2017-09-24T03:03:25.290Z,0
2017-09-24T03:04:25.683Z,0
2017-09-24T03:05:19.359Z,0
2017-09-24T03:06:20.695Z,0
2017-09-24T03:07:15.440Z,0
2017-09-24T03:08:09.435Z,0
2017-09-24T03:09:09.840Z,0
2017-09-24T03:10:04.759Z,0
2017-09-24T03:11:10.565Z,0
2017-09-24T03:12:05.591Z,0
2017-09-24T03:12:59.609Z,0
2017-09-24T03:14:00.951Z,0
2017-09-24T03:14:55.703Z,0
2017-09-24T03:15:49.704Z,0
2017-09-24T03:16:49.772Z,0
2017-09-24T03:17:44.785Z,0
2017-09-24T03:18:44.801Z,0
2017-09-24T03:19:38.863Z,0
2017-09-24T03:20:38.889Z,0
2017-09-24T03:21:34.019Z,0
2017-09-24T03:22:28.961Z,0
2017-09-24T03:23:29.953Z,0
2017-09-24T03:24:31.008Z,0
2017-09-24T03:25:26.440Z,0
2017-09-24T03:26:20.094Z,0
2017-09-24T03:27:20.185Z,0
2017-09-24T03:28:15.566Z,0
2017-09-24T03:29:15.172Z,0
2017-09-24T03:30:15.214Z,0
2017-09-24T03:31:21.195Z,0
2017-09-24T03:32:16.259Z,0
2017-09-24T03:33:16.289Z,0
2017-09-24T03:34:11.307Z,0
2017-09-24T03:35:11.358Z,0
2017-09-24T03:36:11.378Z,0
2017-09-24T03:37:11.881Z,0
2017-09-24T03:38:05.443Z,0
2017-09-24T03:39:05.780Z,0
2017-09-24T03:40:00.609Z,0
2017-09-24T03:41:00.548Z,0
2017-09-24T03:42:00.584Z,0
2017-09-24T03:43:06.651Z,0
2017-09-24T03:44:01.614Z,0
2017-09-24T03:45:02.200Z,0
2017-09-24T03:45:56.695Z,0
2017-09-24T03:46:51.697Z,0
2017-09-24T03:47:51.765Z,0
2017-09-24T03:48:47.226Z,0
2017-09-24T03:49:46.805Z,0
2017-09-24T03:50:46.861Z,0
2017-09-24T03:51:46.878Z,0
2017-09-24T03:52:40.896Z,0
2017-09-24T03:53:40.935Z,0
2017-09-24T03:54:35.971Z,0
2017-09-24T03:55:31.332Z,0
2017-09-24T03:56:37.010Z,0
2017-09-24T03:57:31.070Z,0
2017-09-24T03:58:31.111Z,0
2017-09-24T03:59:26.098Z,0
2017-09-24T04:00:26.166Z,0
2017-09-24T04:01:20.186Z,0
2017-09-24T04:02:20.279Z,0
2017-09-24T04:03:15.349Z,0
2017-09-24T04:04:10.242Z,0
2017-09-24T04:05:11.307Z,0
2017-09-24T04:06:12.356Z,0
2017-09-24T04:07:12.879Z,0
2017-09-24T04:08:13.399Z,0
2017-09-24T04:09:14.434Z,0
2017-09-24T04:10:08.469Z,0
2017-09-24T04:11:08.527Z,0
2017-09-24T04:12:03.559Z,0
2017-09-24T04:12:58.570Z,0
2017-09-24T04:14:04.592Z,0
2017-09-24T04:14:58.603Z,0
2017-09-24T04:15:58.684Z,0
2017-09-24T04:16:53.681Z,0
2017-09-24T04:17:53.713Z,0
2017-09-24T04:18:48.279Z,0
2017-09-24T04:19:47.849Z,0
2017-09-24T04:20:42.789Z,0
2017-09-24T04:21:38.007Z,0
2017-09-24T04:22:37.890Z,0
2017-09-24T04:23:33.272Z,0
2017-09-24T04:24:28.292Z,0
2017-09-24T04:25:27.977Z,0
2017-09-24T04:26:22.994Z,0
2017-09-24T04:27:17.998Z,0
2017-09-24T04:28:19.077Z,0
2017-09-24T04:29:19.099Z,0
2017-09-24T04:30:19.143Z,0
2017-09-24T04:31:14.173Z,0
2017-09-24T04:32:08.582Z,0
2017-09-24T04:33:08.257Z,0
2017-09-24T04:34:03.618Z,0
2017-09-24T04:35:03.491Z,0
2017-09-24T04:35:57.342Z,0
2017-09-24T04:36:57.450Z,0
2017-09-24T04:37:52.394Z,0
2017-09-24T04:38:47.899Z,0
2017-09-24T04:39:47.468Z,0
2017-09-24T04:40:42.641Z,0
2017-09-24T04:41:37.836Z,0
2017-09-24T04:42:43.581Z,0
2017-09-24T04:43:37.596Z,0
2017-09-24T04:44:37.749Z,0
2017-09-24T04:45:32.674Z,0
2017-09-24T04:46:32.687Z,0
2017-09-24T04:47:26.703Z,0
2017-09-24T04:48:26.844Z,0
2017-09-24T04:49:21.795Z,4
2017-09-24T04:50:16.807Z,4
2017-09-24T04:51:16.865Z,4
2017-09-24T04:52:11.888Z,4
2017-09-24T04:53:06.901Z,4
2017-09-24T04:54:07.252Z,8
2017-09-24T04:55:02.178Z,4
2017-09-24T04:55:56.982Z,8
2017-09-24T04:57:03.533Z,8
2017-09-24T04:57:57.503Z,8
2017-09-24T04:58:57.412Z,12
2017-09-24T04:59:52.483Z,16
2017-09-24T05:00:52.176Z,16
2017-09-24T05:01:52.195Z,20
2017-09-24T05:02:58.279Z,28
2017-09-24T05:03:58.311Z,32
2017-09-24T05:04:59.568Z,36
2017-09-24T05:05:53.297Z,40
2017-09-24T05:06:53.385Z,48
2017-09-24T05:07:48.386Z,56
2017-09-24T05:08:43.397Z,60
2017-09-24T05:09:49.441Z,72
2017-09-24T05:10:43.503Z,80
2017-09-24T05:11:44.509Z,92
2017-09-24T05:12:44.781Z,104
2017-09-24T05:13:44.601Z,112
2017-09-24T05:14:44.611Z,128
2017-09-24T05:15:44.655Z,144
2017-09-24T05:16:44.675Z,156
2017-09-24T05:17:44.884Z,172
2017-09-24T05:18:44.701Z,188
2017-09-24T05:19:44.780Z,208
2017-09-24T05:20:44.798Z,224
2017-09-24T05:21:45.203Z,248
2017-09-24T05:22:44.882Z,268
2017-09-24T05:23:44.895Z,288
2017-09-24T05:24:44.890Z,312
2017-09-24T05:25:33.956Z,332
2017-09-24T05:26:28.029Z,352
2017-09-24T05:27:23.101Z,376
2017-09-24T05:28:12.090Z,396
2017-09-24T05:29:06.099Z,420
2017-09-24T05:30:06.146Z,440
2017-09-24T05:31:06.181Z,468
2017-09-24T05:32:06.191Z,492
2017-09-24T05:33:06.505Z,516
2017-09-24T05:34:06.271Z,548
2017-09-24T05:34:55.296Z,572
2017-09-24T05:35:43.366Z,588
2017-09-24T05:36:31.379Z,616
2017-09-24T05:37:19.433Z,636
2017-09-24T05:38:08.537Z,664
2017-09-24T05:38:56.502Z,688
2017-09-24T05:39:50.557Z,716
2017-09-24T05:40:38.591Z,748
2017-09-24T05:41:38.601Z,784
2017-09-24T05:42:26.680Z,812
2017-09-24T05:43:14.770Z,836
2017-09-24T05:44:14.756Z,868
2017-09-24T05:45:03.022Z,892
2017-09-24T05:45:51.801Z,920
2017-09-24T05:46:51.865Z,956
2017-09-24T05:47:46.088Z,988
2017-09-24T05:48:39.916Z,1016
2017-09-24T05:49:28.971Z,1048
2017-09-24T05:50:28.985Z,1080
2017-09-24T05:51:23.061Z,1108
2017-09-24T05:52:11.077Z,1132
2017-09-24T05:53:11.118Z,1160
2017-09-24T05:54:06.177Z,1200
2017-09-24T05:55:06.177Z,1248
2017-09-24T05:56:06.193Z,1304
2017-09-24T05:57:06.220Z,1380
2017-09-24T05:58:06.273Z,1472
2017-09-24T05:59:06.377Z,1584
2017-09-24T06:00:00.352Z,1692
2017-09-24T06:01:00.901Z,1824
2017-09-24T06:01:55.393Z,1956
2017-09-24T06:02:50.459Z,2084
2017-09-24T06:03:44.480Z,2204
2017-09-24T06:04:44.848Z,2328
2017-09-24T06:05:39.512Z,2436
2017-09-24T06:06:34.562Z,2528
2017-09-24T06:07:34.577Z,2608
2017-09-24T06:08:29.580Z,2672
2017-09-24T06:09:24.669Z,2744
2017-09-24T06:10:18.672Z,2800
2017-09-24T06:11:20.197Z,2872
2017-09-24T06:12:14.783Z,2940
2017-09-24T06:13:14.776Z,3020
2017-09-24T06:14:14.837Z,3100
2017-09-24T06:15:14.855Z,3180
2017-09-24T06:16:14.881Z,3256
2017-09-24T06:17:14.971Z,3336
2017-09-24T06:18:14.948Z,3416
2017-09-24T06:19:15.176Z,3492
2017-09-24T06:20:15.050Z,3564
2017-09-24T06:21:15.090Z,3620
2017-09-24T06:22:15.091Z,3672
2017-09-24T06:23:15.111Z,3712
2017-09-24T06:24:15.177Z,3748
2017-09-24T06:25:15.189Z,3756
2017-09-24T06:26:15.197Z,3800
2017-09-24T06:27:15.261Z,3844
2017-09-24T06:28:15.526Z,3904
2017-09-24T06:29:15.636Z,3980
2017-09-24T06:30:15.362Z,4092
2017-09-24T06:31:15.382Z,4172
2017-09-24T06:32:15.397Z,4236
2017-09-24T06:33:09.480Z,4296
2017-09-24T06:34:09.478Z,4356
2017-09-24T06:35:04.841Z,4392
2017-09-24T06:36:00.012Z,4424
2017-09-24T06:36:53.575Z,4460
2017-09-24T06:37:53.586Z,4496
2017-09-24T06:38:48.648Z,4540
2017-09-24T06:39:43.690Z,4592
2017-09-24T06:40:44.704Z,4652
2017-09-24T06:41:44.775Z,4716
2017-09-24T06:42:39.781Z,4764
2017-09-24T06:43:34.799Z,4804
2017-09-24T06:44:34.890Z,4844
2017-09-24T06:45:28.895Z,4864
2017-09-24T06:46:29.046Z,4912
2017-09-24T06:47:28.969Z,4944
2017-09-24T06:48:29.688Z,4984
2017-09-24T06:49:29.128Z,5024
2017-09-24T06:50:23.077Z,5068
2017-09-24T06:51:23.092Z,5112
2017-09-24T06:52:18.175Z,5180
2017-09-24T06:53:13.175Z,5256
2017-09-24T06:54:02.205Z,5332
2017-09-24T06:54:57.690Z,5416
2017-09-24T06:55:51.284Z,5512
2017-09-24T06:56:40.355Z,5612
2017-09-24T06:57:34.414Z,5740
2017-09-24T06:58:30.104Z,5872
2017-09-24T06:59:24.461Z,6000
2017-09-24T07:00:19.896Z,6156
2017-09-24T07:01:13.499Z,6308
2017-09-24T07:02:07.585Z,6476
2017-09-24T07:02:56.604Z,6628
2017-09-24T07:03:51.650Z,6820
2017-09-24T07:04:51.673Z,7068
2017-09-24T07:05:51.694Z,7380
2017-09-24T07:06:51.754Z,7764
2017-09-24T07:07:51.870Z,8140
2017-09-24T07:08:51.867Z,8520
2017-09-24T07:09:52.048Z,8872
2017-09-24T07:10:51.967Z,9196
2017-09-24T07:11:52.132Z,9424
2017-09-24T07:12:51.915Z,9556
2017-09-24T07:13:52.234Z,9704
2017-09-24T07:14:41.038Z,9792
2017-09-24T07:15:41.070Z,9912
2017-09-24T07:16:42.085Z,10052
2017-09-24T07:17:43.104Z,10204
2017-09-24T07:18:43.325Z,10332
2017-09-24T07:19:38.187Z,10460
2017-09-24T07:20:38.262Z,10644
2017-09-24T07:21:33.272Z,10864
2017-09-24T07:22:28.303Z,11120
2017-09-24T07:23:22.351Z,11360
2017-09-24T07:24:23.382Z,11688
2017-09-24T07:25:23.741Z,11944
2017-09-24T07:26:18.408Z,12148
2017-09-24T07:27:18.544Z,12324
2017-09-24T07:28:18.519Z,12532
2017-09-24T07:29:18.510Z,12748
2017-09-24T07:30:12.970Z,13004
2017-09-24T07:31:12.607Z,13220
2017-09-24T07:32:01.681Z,13368
2017-09-24T07:32:50.694Z,13580
2017-09-24T07:33:38.774Z,13840
2017-09-24T07:34:26.804Z,14044
2017-09-24T07:35:27.859Z,14292
2017-09-24T07:36:27.872Z,14428
2017-09-24T07:37:27.892Z,14556
2017-09-24T07:38:21.945Z,14576
2017-09-24T07:39:21.990Z,14588
2017-09-24T07:40:16.997Z,14584
2017-09-24T07:41:12.561Z,14568
2017-09-24T07:42:06.097Z,14472
2017-09-24T07:43:06.375Z,14336
2017-09-24T07:43:54.252Z,14116
2017-09-24T07:44:48.252Z,14080
2017-09-24T07:45:37.274Z,14240
2017-09-24T07:46:31.582Z,14300
2017-09-24T07:47:26.372Z,14372
2017-09-24T07:48:26.943Z,14536
2017-09-24T07:49:21.468Z,14564
2017-09-24T07:50:15.483Z,14536
2017-09-24T07:51:15.491Z,14592
2017-09-24T07:52:09.966Z,14664
2017-09-24T07:53:03.832Z,14760
2017-09-24T07:53:57.598Z,14824
2017-09-24T07:54:45.679Z,14908
2017-09-24T07:55:35.028Z,15040
2017-09-24T07:56:29.763Z,15124
2017-09-24T07:57:29.791Z,15172
2017-09-24T07:58:24.852Z,15240
2017-09-24T07:59:12.885Z,15304
2017-09-24T08:00:07.025Z,15396
2017-09-24T08:01:06.962Z,15448
2017-09-24T08:02:01.993Z,15532
2017-09-24T08:02:57.448Z,15664
2017-09-24T08:03:51.090Z,15792
2017-09-24T08:04:39.545Z,15776
2017-09-24T08:05:27.475Z,15848
2017-09-24T08:06:28.213Z,16028
2017-09-24T08:07:28.217Z,16384
2017-09-24T08:08:17.297Z,16512
2017-09-24T08:09:11.654Z,16640
2017-09-24T08:10:00.393Z,16768
2017-09-24T08:10:55.407Z,16896
2017-09-24T08:11:49.494Z,17120
2017-09-24T08:12:38.849Z,17312
2017-09-24T08:13:26.868Z,17472
2017-09-24T08:14:14.989Z,17632
2017-09-24T08:15:02.921Z,17760
2017-09-24T08:15:51.953Z,17920
2017-09-24T08:16:47.195Z,18080
2017-09-24T08:17:48.075Z,18304
2017-09-24T08:18:36.084Z,18432
2017-09-24T08:19:24.883Z,18560
2017-09-24T08:20:19.276Z,18816
2017-09-24T08:21:12.971Z,18944
2017-09-24T08:22:00.997Z,19072
2017-09-24T08:22:55.060Z,19264
2017-09-24T08:23:44.088Z,19488
2017-09-24T08:24:38.110Z,19840
2017-09-24T08:25:39.176Z,20192
2017-09-24T08:26:33.503Z,20576
2017-09-24T08:27:27.281Z,20832
2017-09-24T08:28:27.734Z,21120
2017-09-24T08:29:21.618Z,21376
2017-09-24T08:30:21.680Z,21632
2017-09-24T08:31:16.729Z,21856
2017-09-24T08:32:10.856Z,22080
2017-09-24T08:33:10.863Z,22304
2017-09-24T08:34:05.836Z,22496
2017-09-24T08:35:00.917Z,22624
2017-09-24T08:36:01.017Z,22848
2017-09-24T08:36:56.160Z,23008
2017-09-24T08:37:50.014Z,23232
2017-09-24T08:38:50.071Z,23360
2017-09-24T08:39:39.193Z,23360
2017-09-24T08:40:33.160Z,23424
2017-09-24T08:41:39.215Z,23360
2017-09-24T08:42:34.205Z,23264
2017-09-24T08:43:28.492Z,23200
2017-09-24T08:44:23.002Z,23200
2017-09-24T08:45:23.431Z,23328
2017-09-24T08:46:23.532Z,23552
2017-09-24T08:47:23.426Z,23872
2017-09-24T08:48:18.492Z,24288
2017-09-24T08:49:18.509Z,24800
2017-09-24T08:50:13.576Z,25312
2017-09-24T08:51:07.595Z,25856
2017-09-24T08:52:02.678Z,26304
2017-09-24T08:53:02.769Z,26816
2017-09-24T08:54:02.846Z,27232
2017-09-24T08:55:02.773Z,27392
2017-09-24T08:56:02.880Z,27392
2017-09-24T08:57:02.847Z,27296
2017-09-24T08:57:51.032Z,27488
2017-09-24T08:58:44.998Z,27776
2017-09-24T08:59:39.147Z,27968
2017-09-24T09:00:33.053Z,27968
2017-09-24T09:01:21.161Z,27840
2017-09-24T09:02:10.249Z,27904
2017-09-24T09:03:04.267Z,28320
2017-09-24T09:03:53.342Z,28000
2017-09-24T09:04:42.328Z,28032
2017-09-24T09:05:36.430Z,28768
2017-09-24T09:06:36.535Z,29536
2017-09-24T09:07:30.515Z,31040
2017-09-24T09:08:30.682Z,29760
2017-09-24T09:09:24.195Z,29440
2017-09-24T09:10:19.542Z,29184
2017-09-24T09:11:20.278Z,29120
2017-09-24T09:12:15.812Z,29184
2017-09-24T09:13:09.380Z,29504
2017-09-24T09:14:03.524Z,29664
2017-09-24T09:14:58.421Z,29952
2017-09-24T09:15:47.505Z,30144
2017-09-24T09:16:41.519Z,30464
2017-09-24T09:17:35.869Z,30944
2017-09-24T09:18:30.213Z,31424
2017-09-24T09:19:30.683Z,31840
2017-09-24T09:20:30.711Z,32384
2017-09-24T09:21:26.028Z,32768
2017-09-24T09:22:15.047Z,33312
2017-09-24T09:23:09.920Z,33952
2017-09-24T09:24:09.899Z,34464
2017-09-24T09:25:04.335Z,34688
2017-09-24T09:26:05.164Z,35104
2017-09-24T09:26:59.505Z,35680
2017-09-24T09:27:48.527Z,35136
2017-09-24T09:28:43.296Z,34816
2017-09-24T09:29:31.690Z,34848
2017-09-24T09:30:25.278Z,33888
2017-09-24T09:31:14.291Z,33664
2017-09-24T09:32:03.785Z,33152
2017-09-24T09:33:03.399Z,33312
2017-09-24T09:33:57.541Z,33504
2017-09-24T09:34:52.587Z,33408
2017-09-24T09:35:47.691Z,32704
2017-09-24T09:36:35.597Z,32320
2017-09-24T09:37:30.838Z,32096
2017-09-24T09:38:25.872Z,31776
2017-09-24T09:39:20.226Z,31616
2017-09-24T09:40:15.067Z,31424
2017-09-24T09:41:08.862Z,31232
2017-09-24T09:42:03.203Z,31168
2017-09-24T09:42:58.275Z,31168
2017-09-24T09:43:52.367Z,31264
2017-09-24T09:44:46.099Z,31360
2017-09-24T09:45:41.506Z,31680
2017-09-24T09:46:30.160Z,32128
2017-09-24T09:47:18.537Z,32480
2017-09-24T09:48:12.720Z,33088
2017-09-24T09:49:07.348Z,33632
2017-09-24T09:50:07.787Z,33952
2017-09-24T09:51:07.848Z,33248
2017-09-24T09:52:01.915Z,35712
2017-09-24T09:52:55.987Z,44288
2017-09-24T09:53:51.000Z,56704
2017-09-24T09:54:40.042Z,53536
2017-09-24T09:55:28.850Z,53408
2017-09-24T09:56:17.184Z,46240
2017-09-24T09:57:11.142Z,55136
2017-09-24T09:58:05.298Z,42336
2017-09-24T09:58:59.223Z,46112
2017-09-24T09:59:53.303Z,50752
2017-09-24T10:00:48.384Z,47424
2017-09-24T10:01:49.419Z,40928
2017-09-24T10:02:49.467Z,38592
2017-09-24T10:03:43.554Z,44896
2017-09-24T10:04:43.572Z,41184
2017-09-24T10:05:37.589Z,49024
2017-09-24T10:06:31.688Z,52288
2017-09-24T10:07:19.738Z,53216
2017-09-24T10:08:07.780Z,49888
2017-09-24T10:09:07.858Z,40192
2017-09-24T10:10:01.872Z,42112
2017-09-24T10:10:56.948Z,45536
2017-09-24T10:11:51.065Z,42688
2017-09-24T10:12:45.053Z,49312
2017-09-24T10:13:40.121Z,39360
2017-09-24T10:14:40.152Z,37280
2017-09-24T10:15:34.222Z,41376
2017-09-24T10:16:35.239Z,44800
2017-09-24T10:17:35.332Z,45728
2017-09-24T10:18:24.362Z,46464
2017-09-24T10:19:18.443Z,45472
2017-09-24T10:20:12.448Z,47040
2017-09-24T10:21:00.505Z,47648
2017-09-24T10:21:55.527Z,48480
2017-09-24T10:22:50.511Z,47296
2017-09-24T10:23:44.713Z,45728
2017-09-24T10:24:39.711Z,46560
2017-09-24T10:25:28.722Z,45920
2017-09-24T10:26:29.854Z,44768
2017-09-24T10:27:24.502Z,44000
2017-09-24T10:28:18.985Z,44480
2017-09-24T10:29:14.011Z,42528
2017-09-24T10:30:13.846Z,40512
2017-09-24T10:31:03.127Z,43904
2017-09-24T10:31:57.216Z,44992
2017-09-24T10:32:52.270Z,47136
2017-09-24T10:33:40.283Z,47776
2017-09-24T10:34:34.363Z,50784
2017-09-24T10:35:28.421Z,52064
2017-09-24T10:36:17.492Z,52352
2017-09-24T10:37:06.527Z,52608
2017-09-24T10:38:06.604Z,52192
2017-09-24T10:39:01.634Z,51776
2017-09-24T10:39:55.635Z,53344
2017-09-24T10:40:49.721Z,55232
2017-09-24T10:41:43.763Z,56384
2017-09-24T10:42:38.815Z,56032
2017-09-24T10:43:38.874Z,55040
2017-09-24T10:44:27.018Z,54464
2017-09-24T10:45:21.941Z,52928
2017-09-24T10:46:16.055Z,51616
2017-09-24T10:47:11.100Z,51200
2017-09-24T10:48:00.224Z,50496
2017-09-24T10:48:55.201Z,49376
2017-09-24T10:49:49.331Z,48480
2017-09-24T10:50:43.366Z,49120
2017-09-24T10:51:32.380Z,50528
2017-09-24T10:52:20.449Z,53184
2017-09-24T10:53:20.517Z,55520
2017-09-24T10:54:08.514Z,56576
2017-09-24T10:55:03.689Z,55328
2017-09-24T10:55:57.715Z,54080
2017-09-24T10:56:51.712Z,53984
2017-09-24T10:57:40.865Z,55008
2017-09-24T10:58:35.135Z,54112
2017-09-24T10:59:29.971Z,51648
2017-09-24T11:00:19.084Z,48928
2017-09-24T11:01:19.062Z,45472
2017-09-24T11:02:19.141Z,36800
2017-09-24T11:03:14.220Z,48928
2017-09-24T11:04:14.267Z,50336
2017-09-24T11:05:08.383Z,48416
2017-09-24T11:05:57.455Z,47264
2017-09-24T11:06:52.508Z,48128
2017-09-24T11:07:46.496Z,50560
2017-09-24T11:08:35.822Z,51424
2017-09-24T11:09:24.680Z,51648
2017-09-24T11:10:18.726Z,52288
2017-09-24T11:11:13.797Z,51296
2017-09-24T11:12:08.867Z,50016
2017-09-24T11:13:02.894Z,48352
2017-09-24T11:13:51.897Z,52032
2017-09-24T11:14:46.986Z,55872
2017-09-24T11:15:48.046Z,51232
2017-09-24T11:16:43.275Z,52416
2017-09-24T11:17:32.171Z,48800
2017-09-24T11:18:26.253Z,21440
2017-09-24T11:19:21.290Z,18132
2017-09-24T11:20:10.300Z,17884
2017-09-24T11:21:04.427Z,17488
2017-09-24T11:21:59.482Z,18276
2017-09-24T11:22:53.537Z,19776
2017-09-24T11:23:48.574Z,56608
2017-09-24T11:24:48.635Z,56800
2017-09-24T11:25:37.710Z,54560
2017-09-24T11:26:31.749Z,46912
2017-09-24T11:27:25.803Z,26976
2017-09-24T11:28:19.871Z,51200
2017-09-24T11:29:14.881Z,55744
2017-09-24T11:30:14.953Z,56256
2017-09-24T11:31:09.016Z,57984
2017-09-24T11:32:03.084Z,56704
2017-09-24T11:32:58.182Z,54400
2017-09-24T11:33:46.861Z,55616
2017-09-24T11:34:42.054Z,22208
2017-09-24T11:35:42.218Z,45536
2017-09-24T11:36:36.345Z,58304
2017-09-24T11:37:30.089Z,56672
2017-09-24T11:38:25.480Z,55552
2017-09-24T11:39:19.470Z,53408
2017-09-24T11:40:13.571Z,53152
2017-09-24T11:41:07.585Z,52448
2017-09-24T11:42:02.686Z,54080
2017-09-24T11:42:57.741Z,54208
2017-09-24T11:43:51.748Z,54304
2017-09-24T11:44:39.818Z,54080
2017-09-24T11:45:34.913Z,52736
2017-09-24T11:46:28.983Z,48960
2017-09-24T11:47:23.040Z,47040
2017-09-24T11:48:23.141Z,37504
2017-09-24T11:49:12.247Z,40384
2017-09-24T11:50:01.251Z,19584
2017-09-24T11:50:55.334Z,21088
2017-09-24T11:51:50.332Z,18280
2017-09-24T11:52:50.392Z,38496
2017-09-24T11:53:44.457Z,17576
2017-09-24T11:54:33.524Z,28064
2017-09-24T11:55:27.519Z,41120
2017-09-24T11:56:21.636Z,27872
2017-09-24T11:57:10.718Z,44800
2017-09-24T11:58:05.541Z,16308
2017-09-24T11:58:59.711Z,45440
2017-09-24T11:59:53.865Z,42112
2017-09-24T12:00:47.960Z,46304
2017-09-24T12:01:47.493Z,16276
2017-09-24T12:02:36.929Z,42592
2017-09-24T12:03:25.674Z,36224
2017-09-24T12:04:20.132Z,35232
2017-09-24T12:05:15.171Z,38496
2017-09-24T12:06:04.037Z,45024
2017-09-24T12:06:58.196Z,41664
2017-09-24T12:07:53.319Z,46560
2017-09-24T12:08:47.384Z,53760
2017-09-24T12:09:36.300Z,53056
2017-09-24T12:10:30.364Z,51072
2017-09-24T12:11:19.245Z,49568
2017-09-24T12:12:13.561Z,48256
2017-09-24T12:13:13.688Z,48032
2017-09-24T12:14:08.699Z,18180
2017-09-24T12:15:08.697Z,37824
2017-09-24T12:16:02.735Z,34080
2017-09-24T12:16:51.931Z,35040
2017-09-24T12:17:40.629Z,41408
2017-09-24T12:18:29.493Z,37600
2017-09-24T12:19:23.760Z,33984
2017-09-24T12:20:23.747Z,14236
2017-09-24T12:21:12.189Z,18688
2017-09-24T12:21:59.906Z,14192
2017-09-24T12:22:54.234Z,24128
2017-09-24T12:23:48.301Z,36736
2017-09-24T12:24:43.370Z,31968
2017-09-24T12:25:37.407Z,39296
2017-09-24T12:26:31.457Z,37952
2017-09-24T12:27:26.505Z,36608
2017-09-24T12:28:20.546Z,35136
2017-09-24T12:29:14.603Z,32096
2017-09-24T12:30:14.619Z,17224
2017-09-24T12:31:14.683Z,12716
2017-09-24T12:32:08.771Z,12276
2017-09-24T12:32:56.776Z,12232
2017-09-24T12:33:56.799Z,11860
2017-09-24T12:34:50.876Z,11720
2017-09-24T12:35:51.907Z,11640
2017-09-24T12:36:45.952Z,11820
2017-09-24T12:37:40.035Z,11944
2017-09-24T12:38:35.109Z,11760
2017-09-24T12:39:30.126Z,11868
2017-09-24T12:40:25.163Z,11784
2017-09-24T12:41:20.195Z,11856
2017-09-24T12:42:20.259Z,11800
2017-09-24T12:43:14.400Z,11976
2017-09-24T12:44:14.373Z,11944
2017-09-24T12:45:02.324Z,12152
2017-09-24T12:45:51.370Z,12200
2017-09-24T12:46:39.584Z,12392
2017-09-24T12:47:40.711Z,12804